Time;durP1;ratioP1;P1;durP2;ratioP2;P2;SDS_P1;SDS_P2;PMS_P1;PMS_P2;Temp;Humidity;BMP_temperature;BMP_pressure;BME280_temperature;BME280_humidity;BME280_pressure;Samples;Min_cycle;Max_cycle;Signal;HPM_P1;HPM_P2
2024/01/01 00:03:08;;;;;;;34.70;18.80;;;9.60;99.90;;;;;;10359022;28;20029;-69
2024/01/01 00:08:09;;;;;;;36.03;18.52;;;9.60;99.90;;;;;;10360978;28;20298;-69
2024/01/01 00:13:09;;;;;;;31.38;17.08;;;9.60;99.90;;;;;;10362406;28;20045;-69
2024/01/01 00:18:10;;;;;;;30.02;16.35;;;9.60;99.90;;;;;;10371666;28;20076;-69
2024/01/01 00:23:11;;;;;;;29.50;15.77;;;9.60;99.90;;;;;;10363372;28;20440;-69
2024/01/01 00:28:11;;;;;;;25.05;14.60;;;9.60;99.90;;;;;;10357396;28;20034;-69
2024/01/01 00:33:12;;;;;;;28.20;14.18;;;9.70;99.90;;;;;;10362558;28;20038;-69
2024/01/01 00:38:12;;;;;;;24.98;14.45;;;9.60;99.90;;;;;;10369366;28;20025;-69
2024/01/01 00:43:13;;;;;;;24.13;12.00;;;9.60;99.90;;;;;;10366908;28;20025;-69
2024/01/01 00:48:14;;;;;;;20.80;11.45;;;9.60;99.90;;;;;;10368563;28;20090;-69
2024/01/01 00:53:14;;;;;;;22.17;12.50;;;9.60;99.90;;;;;;10365695;28;20113;-69
2024/01/01 00:58:15;;;;;;;25.25;12.80;;;9.60;99.90;;;;;;10364071;28;20029;-69
2024/01/01 01:03:16;;;;;;;19.30;10.75;;;9.60;99.90;;;;;;10367013;28;20091;-69
2024/01/01 01:08:17;;;;;;;22.23;11.85;;;9.60;99.90;;;;;;10364446;28;20026;-68
2024/01/01 01:13:17;;;;;;;22.52;12.45;;;9.60;99.90;;;;;;10364531;28;20030;-69
2024/01/01 01:18:18;;;;;;;22.00;12.15;;;9.60;99.90;;;;;;10367080;28;20029;-68
2024/01/01 01:23:18;;;;;;;24.10;12.00;;;9.60;99.90;;;;;;10364832;28;20026;-69
2024/01/01 01:28:23;;;;;;;24.17;12.35;;;9.60;99.90;;;;;;10345803;28;20026;-69
2024/01/01 01:33:24;;;;;;;22.88;12.27;;;9.60;99.90;;;;;;10357958;28;20120;-69
2024/01/01 01:38:24;;;;;;;26.52;12.43;;;9.60;99.90;;;;;;10360975;28;20106;-68
2024/01/01 01:43:25;;;;;;;22.92;11.48;;;9.60;99.90;;;;;;10371557;28;20536;-68
2024/01/01 01:48:26;;;;;;;24.02;12.10;;;9.60;99.90;;;;;;10368054;28;20041;-68
2024/01/01 01:53:29;;;;;;;19.92;11.05;;;9.60;99.90;;;;;;10364573;28;20109;-69
2024/01/01 01:58:31;;;;;;;21.83;11.50;;;9.60;99.90;;;;;;10342249;28;20026;-68
2024/01/01 02:03:32;;;;;;;22.58;11.82;;;9.60;99.90;;;;;;10363212;28;20052;-69
2024/01/01 02:08:32;;;;;;;20.30;10.75;;;9.60;99.90;;;;;;10348077;28;20634;-69
2024/01/01 02:13:33;;;;;;;19.60;9.50;;;9.60;99.90;;;;;;10374556;28;20037;-69
2024/01/01 02:18:34;;;;;;;21.58;9.80;;;9.60;99.90;;;;;;10363401;28;20096;-68
2024/01/01 02:23:34;;;;;;;19.33;10.38;;;9.60;99.90;;;;;;10353562;28;20537;-68
2024/01/01 02:28:35;;;;;;;17.50;9.10;;;9.60;99.90;;;;;;10358205;28;20540;-69
2024/01/01 02:33:36;;;;;;;16.65;8.27;;;9.60;99.90;;;;;;10363753;28;20026;-68
2024/01/01 02:38:36;;;;;;;17.60;8.18;;;9.60;99.90;;;;;;10365644;28;20032;-68
2024/01/01 02:43:37;;;;;;;16.33;7.85;;;9.60;99.90;;;;;;10363208;28;20250;-68
2024/01/01 02:48:38;;;;;;;16.75;7.60;;;9.60;99.90;;;;;;10355534;28;20084;-67
2024/01/01 02:53:39;;;;;;;16.02;7.28;;;9.60;99.90;;;;;;10369266;28;20038;-68
2024/01/01 02:58:39;;;;;;;12.75;6.60;;;9.60;99.90;;;;;;10372215;28;20194;-67
2024/01/01 03:03:40;;;;;;;12.15;5.80;;;9.50;99.90;;;;;;10370786;28;20030;-67
2024/01/01 03:08:41;;;;;;;12.13;5.75;;;9.50;99.90;;;;;;10369408;28;20021;-68
2024/01/01 03:13:41;;;;;;;12.07;6.05;;;9.50;99.90;;;;;;10370235;28;20033;-67
2024/01/01 03:18:42;;;;;;;10.15;3.80;;;9.60;99.90;;;;;;10369194;28;20026;-68
2024/01/01 03:23:42;;;;;;;11.25;4.82;;;9.50;99.90;;;;;;10347812;28;20073;-67
2024/01/01 03:28:43;;;;;;;9.00;4.32;;;9.50;99.90;;;;;;10365088;28;20040;-68
2024/01/01 03:33:45;;;;;;;7.40;4.05;;;9.30;99.90;;;;;;10369849;28;20033;-67
2024/01/01 03:38:46;;;;;;;10.02;3.88;;;9.50;99.90;;;;;;10377237;28;20390;-66
2024/01/01 03:43:47;;;;;;;11.82;3.58;;;9.50;99.90;;;;;;10351110;28;20042;-67
2024/01/01 03:48:47;;;;;;;9.20;3.20;;;9.50;99.90;;;;;;10362386;28;20576;-68
2024/01/01 03:53:48;;;;;;;5.90;3.13;;;9.50;99.90;;;;;;10369818;28;20498;-68
2024/01/01 03:58:48;;;;;;;8.73;2.95;;;9.50;99.90;;;;;;10375125;28;20456;-68
2024/01/01 04:03:49;;;;;;;7.82;2.85;;;9.50;99.90;;;;;;10372898;28;20038;-68
2024/01/01 04:08:49;;;;;;;6.32;2.42;;;9.50;99.90;;;;;;10374696;28;20030;-68
2024/01/01 04:13:50;;;;;;;4.78;2.00;;;9.50;99.90;;;;;;10374027;28;20034;-67
2024/01/01 04:18:51;;;;;;;3.85;2.10;;;9.50;99.90;;;;;;10366134;28;20018;-68
2024/01/01 04:23:54;;;;;;;3.70;1.90;;;9.50;99.90;;;;;;10370214;28;20022;-68
2024/01/01 04:28:54;;;;;;;4.40;2.38;;;9.50;99.90;;;;;;10358743;28;20038;-68
2024/01/01 04:33:55;;;;;;;4.45;2.10;;;9.50;99.90;;;;;;10371041;28;20389;-66
2024/01/01 04:38:56;;;;;;;4.55;1.90;;;9.50;99.90;;;;;;10377338;28;20030;-68
2024/01/01 04:43:56;;;;;;;4.60;1.92;;;9.40;99.90;;;;;;10375024;28;20051;-67
2024/01/01 04:48:57;;;;;;;2.63;1.60;;;9.50;99.90;;;;;;10368873;28;20026;-68
2024/01/01 04:53:58;;;;;;;5.57;2.10;;;9.40;99.90;;;;;;10371422;28;20021;-67
2024/01/01 04:58:58;;;;;;;6.70;2.17;;;9.40;99.90;;;;;;10371191;28;20026;-68
2024/01/01 05:03:59;;;;;;;4.70;2.10;;;9.40;99.90;;;;;;10368257;28;20037;-68
2024/01/01 05:08:59;;;;;;;8.15;2.00;;;9.40;99.90;;;;;;10355787;28;20025;-68
2024/01/01 05:14:00;;;;;;;5.95;2.17;;;9.40;99.90;;;;;;10354855;28;20474;-68
2024/01/01 05:19:01;;;;;;;4.03;1.52;;;9.40;99.90;;;;;;10364397;28;20533;-68
2024/01/01 05:24:02;;;;;;;5.72;2.13;;;9.40;99.90;;;;;;10363304;28;20026;-68
2024/01/01 05:29:02;;;;;;;4.13;1.33;;;9.40;99.90;;;;;;10361397;28;20029;-66
2024/01/01 05:34:04;;;;;;;5.60;1.52;;;9.40;99.90;;;;;;10364245;28;20037;-67
2024/01/01 05:39:04;;;;;;;5.57;1.75;;;9.40;99.90;;;;;;10364084;28;20217;-68
2024/01/01 05:44:05;;;;;;;8.93;1.55;;;9.40;99.90;;;;;;10356641;28;20121;-68
2024/01/01 05:49:05;;;;;;;8.63;2.42;;;9.40;99.90;;;;;;10335703;28;20057;-67
2024/01/01 05:54:06;;;;;;;4.22;1.75;;;9.40;99.90;;;;;;10366851;28;20738;-67
2024/01/01 05:59:06;;;;;;;6.15;1.80;;;9.40;99.90;;;;;;10348827;28;20478;-68
2024/01/01 06:04:07;;;;;;;6.40;2.70;;;9.40;99.90;;;;;;10365748;28;20453;-67
2024/01/01 06:09:08;;;;;;;5.60;1.63;;;9.40;99.90;;;;;;10365966;28;20041;-68
2024/01/01 06:14:08;;;;;;;7.20;1.45;;;9.40;99.90;;;;;;10358822;28;20018;-68
2024/01/01 06:19:09;;;;;;;4.28;1.60;;;9.40;99.90;;;;;;10362722;28;20473;-67
2024/01/01 06:24:10;;;;;;;3.80;1.30;;;9.40;99.90;;;;;;10341017;28;20282;-67
2024/01/01 06:29:10;;;;;;;3.17;1.38;;;9.40;99.90;;;;;;10359903;28;20034;-68
2024/01/01 06:34:11;;;;;;;4.30;2.13;;;9.40;99.90;;;;;;10347467;28;20036;-68
2024/01/01 06:39:11;;;;;;;3.15;1.50;;;9.40;99.90;;;;;;10372016;28;20313;-68
2024/01/01 06:44:12;;;;;;;6.07;1.80;;;9.40;99.90;;;;;;10359903;28;20018;-68
2024/01/01 06:49:12;;;;;;;5.72;1.33;;;9.40;99.90;;;;;;10364786;28;20326;-68
2024/01/01 06:54:13;;;;;;;5.78;1.67;;;9.40;99.90;;;;;;10369440;28;20030;-68
2024/01/01 06:59:14;;;;;;;3.88;1.27;;;9.40;99.90;;;;;;10369604;28;20022;-67
2024/01/01 07:04:14;;;;;;;3.83;1.13;;;9.30;99.90;;;;;;10354747;28;20022;-68
2024/01/01 07:09:15;;;;;;;3.40;1.33;;;9.30;99.90;;;;;;10366864;28;20336;-68
2024/01/01 07:14:15;;;;;;;6.20;1.40;;;9.30;99.90;;;;;;10345868;28;20022;-66
2024/01/01 07:19:16;;;;;;;3.33;1.33;;;9.30;99.90;;;;;;10360688;28;20414;-68
2024/01/01 07:24:16;;;;;;;2.58;1.10;;;9.30;99.90;;;;;;10367048;28;20560;-68
2024/01/01 07:29:17;;;;;;;3.55;1.30;;;9.30;99.90;;;;;;10357285;28;20046;-67
2024/01/01 07:34:19;;;;;;;4.70;1.20;;;9.30;99.90;;;;;;10356070;28;20066;-67
2024/01/01 07:39:21;;;;;;;3.17;1.30;;;9.30;99.90;;;;;;10364740;28;20507;-68
2024/01/01 07:44:21;;;;;;;5.18;1.83;;;9.30;99.90;;;;;;10368021;28;20494;-68
2024/01/01 07:49:22;;;;;;;6.20;1.30;;;9.30;99.90;;;;;;10361851;28;20022;-68
2024/01/01 07:54:22;;;;;;;6.05;1.70;;;9.30;99.90;;;;;;10363814;28;20022;-68
2024/01/01 07:59:24;;;;;;;3.78;1.35;;;9.30;99.90;;;;;;10365064;28;20050;-68
2024/01/01 08:04:24;;;;;;;4.45;1.48;;;9.30;99.90;;;;;;10365321;28;20022;-68
2024/01/01 08:09:25;;;;;;;3.35;1.48;;;9.30;99.90;;;;;;10370827;28;20049;-68
2024/01/01 08:14:25;;;;;;;4.72;1.27;;;9.30;99.90;;;;;;10366812;28;20033;-67
2024/01/01 08:19:26;;;;;;;2.78;1.40;;;9.30;99.90;;;;;;10363128;28;20037;-68
2024/01/01 08:24:26;;;;;;;2.60;1.15;;;9.30;99.90;;;;;;10373706;28;20025;-68
2024/01/01 08:29:27;;;;;;;2.55;1.27;;;9.30;99.90;;;;;;10357637;28;20046;-68
2024/01/01 08:34:31;;;;;;;5.75;1.58;;;9.30;99.90;;;;;;10344141;28;20076;-68
2024/01/01 08:39:32;;;;;;;5.20;1.20;;;9.30;99.90;;;;;;10358810;28;20028;-68
2024/01/01 08:44:32;;;;;;;3.20;1.17;;;9.30;99.90;;;;;;10350014;28;20034;-67
2024/01/01 08:49:33;;;;;;;6.40;1.60;;;9.30;99.90;;;;;;10363360;28;20030;-68
2024/01/01 08:54:33;;;;;;;2.67;1.48;;;9.30;99.90;;;;;;10367902;28;20778;-68
2024/01/01 08:59:34;;;;;;;3.53;1.52;;;9.40;99.90;;;;;;10358935;28;20034;-69
2024/01/01 09:04:35;;;;;;;3.03;1.08;;;9.40;99.90;;;;;;10367421;28;20060;-67
2024/01/01 09:09:37;;;;;;;5.80;1.50;;;9.40;99.90;;;;;;10360770;28;20021;-68
2024/01/01 09:14:38;;;;;;;2.63;1.23;;;9.40;99.90;;;;;;10362875;28;20490;-68
2024/01/01 09:19:38;;;;;;;7.78;1.63;;;9.40;99.90;;;;;;10363616;28;20072;-67
2024/01/01 09:24:39;;;;;;;2.95;1.20;;;9.40;99.90;;;;;;10363714;28;20028;-67
2024/01/01 09:29:39;;;;;;;2.92;1.42;;;9.40;99.90;;;;;;10358055;28;20053;-68
2024/01/01 09:34:40;;;;;;;4.18;1.33;;;9.40;99.90;;;;;;10360220;28;20022;-68
2024/01/01 09:39:43;;;;;;;6.80;1.70;;;9.40;99.90;;;;;;10338764;28;20072;-68
2024/01/01 09:44:49;;;;;;;2.55;1.10;;;9.40;99.90;;;;;;10361093;28;20477;-67
2024/01/01 09:49:50;;;;;;;3.58;1.20;;;9.40;99.90;;;;;;10358389;28;20490;-65
2024/01/01 09:54:50;;;;;;;1.25;0.88;;;9.40;99.90;;;;;;10353851;28;20112;-67
2024/01/01 09:59:51;;;;;;;3.35;1.17;;;9.40;99.90;;;;;;10367927;28;20026;-67
2024/01/01 10:04:51;;;;;;;4.15;1.20;;;9.40;99.90;;;;;;10367192;28;20028;-68
2024/01/01 10:09:52;;;;;;;3.17;0.95;;;9.40;99.90;;;;;;10367980;28;20409;-67
2024/01/01 10:14:53;;;;;;;2.20;1.00;;;9.40;99.90;;;;;;10367756;28;20022;-67
2024/01/01 10:20:00;;;;;;;5.38;1.23;;;9.40;99.90;;;;;;10359113;28;20033;-67
2024/01/01 10:25:12;;;;;;;2.85;0.90;;;9.40;99.90;;;;;;10368634;28;20026;-67
2024/01/01 10:30:12;;;;;;;7.38;1.33;;;9.40;99.90;;;;;;10342331;28;20080;-68
2024/01/01 10:35:15;;;;;;;2.97;1.13;;;9.40;99.90;;;;;;10371921;28;20582;-68
2024/01/01 10:40:16;;;;;;;3.20;1.33;;;9.40;99.90;;;;;;10359456;28;20038;-67
2024/01/01 10:45:17;;;;;;;2.80;0.85;;;9.40;99.90;;;;;;10354269;28;20105;-68
2024/01/01 10:50:25;;;;;;;4.00;1.17;;;9.40;99.90;;;;;;10362465;28;20070;-68
2024/01/01 10:55:29;;;;;;;1.98;0.90;;;9.40;99.90;;;;;;10354704;28;20526;-67
2024/01/01 11:00:53;;;;;;;4.20;1.05;;;9.40;99.90;;;;;;10349484;28;20126;-69
2024/01/01 11:05:53;;;;;;;3.20;0.90;;;9.40;99.90;;;;;;10360012;28;20030;-71
2024/01/01 11:10:55;;;;;;;2.83;0.88;;;9.40;99.90;;;;;;10365914;28;20029;-70
2024/01/01 11:16:05;;;;;;;2.25;0.70;;;9.50;99.90;;;;;;10366249;28;20029;-70
2024/01/01 11:21:06;;;;;;;3.67;1.05;;;9.50;99.90;;;;;;10367072;28;20029;-70
2024/01/01 11:26:26;;;;;;;3.63;1.10;;;9.50;99.90;;;;;;10366902;28;20537;-65
2024/01/01 11:31:28;;;;;;;5.43;1.25;;;9.50;99.90;;;;;;10363438;28;20034;-66
2024/01/01 11:36:29;;;;;;;5.30;1.27;;;9.50;99.90;;;;;;10365491;28;20022;-67
2024/01/01 11:41:32;;;;;;;3.03;1.00;;;9.50;99.90;;;;;;10350570;28;20034;-66
2024/01/01 11:46:33;;;;;;;4.60;1.38;;;9.50;99.90;;;;;;10368666;28;20021;-65
2024/01/01 11:51:49;;;;;;;4.72;1.70;;;9.50;99.90;;;;;;10367209;28;20037;-69
2024/01/01 11:56:54;;;;;;;2.70;1.00;;;9.60;99.90;;;;;;10364067;28;20131;-66
2024/01/01 12:01:55;;;;;;;2.25;0.80;;;9.60;99.90;;;;;;10359956;28;20069;-68
2024/01/01 12:06:56;;;;;;;3.28;1.48;;;9.60;99.90;;;;;;10353057;28;20025;-68
2024/01/01 12:12:12;;;;;;;1.73;1.05;;;9.70;99.90;;;;;;10375320;28;20022;-67
2024/01/01 12:17:13;;;;;;;3.15;0.88;;;9.60;99.90;;;;;;10372371;28;20069;-67
2024/01/01 12:22:24;;;;;;;3.40;1.00;;;9.60;99.90;;;;;;10370661;28;20064;-66
2024/01/01 12:27:25;;;;;;;1.92;0.90;;;9.60;99.90;;;;;;10371236;28;20478;-67
2024/01/01 12:32:26;;;;;;;4.18;1.30;;;9.60;99.90;;;;;;10365267;28;20029;-67
2024/01/01 12:37:27;;;;;;;3.45;0.90;;;9.60;99.90;;;;;;10366571;28;20076;-68
2024/01/01 12:42:28;;;;;;;6.22;0.90;;;9.60;99.90;;;;;;10375702;28;20060;-70
2024/01/01 12:47:29;;;;;;;2.72;1.05;;;9.60;99.90;;;;;;10350451;28;20029;-67
2024/01/01 12:52:29;;;;;;;3.08;1.20;;;9.70;99.90;;;;;;10370747;28;20057;-71
2024/01/01 12:57:30;;;;;;;7.05;1.30;;;9.80;99.90;;;;;;10348563;28;20030;-71
2024/01/01 13:02:30;;;;;;;5.22;0.88;;;9.80;99.90;;;;;;10372631;28;20109;-68
2024/01/01 13:07:31;;;;;;;3.10;1.00;;;9.80;99.90;;;;;;10354558;28;20026;-68
2024/01/01 13:12:32;;;;;;;2.30;0.90;;;9.80;99.90;;;;;;10360079;28;20101;-68
2024/01/01 13:17:32;;;;;;;5.75;1.30;;;9.80;99.90;;;;;;10377090;28;20032;-70
2024/01/01 13:22:33;;;;;;;2.78;0.90;;;9.80;99.90;;;;;;10371099;28;20029;-70
2024/01/01 13:27:33;;;;;;;2.15;0.90;;;9.80;99.90;;;;;;10370814;28;20221;-69
2024/01/01 13:32:34;;;;;;;6.75;1.20;;;9.80;99.90;;;;;;10373060;28;20059;-68
2024/01/01 13:37:36;;;;;;;1.77;0.90;;;9.80;99.90;;;;;;10369916;28;20030;-69
2024/01/01 13:42:37;;;;;;;5.22;0.90;;;9.80;99.90;;;;;;10382725;28;20017;-70
2024/01/01 13:47:37;;;;;;;5.60;0.80;;;9.80;99.90;;;;;;10377989;28;20101;-68
2024/01/01 13:52:38;;;;;;;0.95;0.60;;;10.50;99.90;;;;;;10371387;28;20028;-69
2024/01/01 13:57:38;;;;;;;2.67;0.90;;;9.80;99.90;;;;;;10364401;28;20122;-69
2024/01/01 14:02:41;;;;;;;3.78;0.88;;;9.70;99.90;;;;;;10377097;28;20037;-69
2024/01/01 14:07:45;;;;;;;2.67;0.80;;;9.80;99.90;;;;;;10367870;28;20080;-69
2024/01/01 14:12:47;;;;;;;3.25;0.80;;;9.70;99.90;;;;;;10374468;28;20388;-67
2024/01/01 14:17:48;;;;;;;4.47;1.10;;;9.70;99.90;;;;;;10385042;28;20096;-69
2024/01/01 14:22:50;;;;;;;2.70;0.82;;;10.70;99.90;;;;;;10368517;28;20021;-68
2024/01/01 14:27:50;;;;;;;3.00;0.88;;;9.70;99.90;;;;;;10354930;28;20527;-69
2024/01/01 14:32:53;;;;;;;2.15;0.88;;;9.80;99.90;;;;;;10359078;28;20034;-68
2024/01/01 14:37:54;;;;;;;5.25;1.40;;;9.70;99.90;;;;;;10365530;28;20037;-68
2024/01/01 14:42:54;;;;;;;1.98;0.82;;;9.70;99.90;;;;;;10350273;28;20037;-69
2024/01/01 14:47:55;;;;;;;2.58;0.73;;;9.70;99.90;;;;;;10364933;28;20057;-69
2024/01/01 14:52:56;;;;;;;7.20;1.02;;;9.70;99.90;;;;;;10356618;28;20366;-69
2024/01/01 14:57:56;;;;;;;3.58;1.35;;;9.70;99.90;;;;;;10374095;28;20477;-68
2024/01/01 15:02:57;;;;;;;2.28;1.00;;;9.70;99.90;;;;;;10362223;28;20489;-69
2024/01/01 15:07:57;;;;;;;4.97;1.23;;;9.70;99.90;;;;;;10366831;28;20225;-68
2024/01/01 15:12:58;;;;;;;3.17;0.82;;;9.70;99.90;;;;;;10370068;28;20101;-68
2024/01/01 15:17:59;;;;;;;2.67;0.93;;;9.60;99.90;;;;;;10368277;28;20452;-68
2024/01/01 15:22:59;;;;;;;3.63;0.98;;;9.60;99.90;;;;;;10365941;28;20032;-68
2024/01/01 15:28:02;;;;;;;4.43;1.00;;;9.60;99.90;;;;;;10364225;28;20079;-69
2024/01/01 15:33:02;;;;;;;2.85;0.90;;;9.60;99.90;;;;;;10360292;28;20493;-69
2024/01/01 15:38:03;;;;;;;5.28;1.13;;;9.60;99.90;;;;;;10366413;28;20036;-68
2024/01/01 15:43:04;;;;;;;2.17;0.90;;;9.60;99.90;;;;;;10361810;28;20030;-67
2024/01/01 15:48:05;;;;;;;3.08;0.85;;;9.60;99.90;;;;;;10364660;28;20029;-69
2024/01/01 15:53:05;;;;;;;4.20;1.05;;;9.60;99.90;;;;;;10345230;28;20026;-68
2024/01/01 15:58:06;;;;;;;2.95;1.00;;;9.60;99.90;;;;;;10364468;28;20026;-69
2024/01/01 16:03:09;;;;;;;5.18;0.90;;;9.60;99.90;;;;;;10365406;28;20490;-68
2024/01/01 16:08:09;;;;;;;2.75;0.85;;;9.60;99.90;;;;;;10366814;28;20486;-68
2024/01/01 16:13:10;;;;;;;2.78;1.40;;;9.60;99.90;;;;;;10358512;28;20022;-69
2024/01/01 16:18:11;;;;;;;2.92;1.00;;;9.60;99.90;;;;;;10361715;28;20022;-68
2024/01/01 16:23:13;;;;;;;3.50;1.20;;;9.60;99.90;;;;;;10364643;28;20486;-70
2024/01/01 16:28:14;;;;;;;2.90;1.33;;;9.60;99.90;;;;;;10370726;28;20029;-69
2024/01/01 16:33:14;;;;;;;4.97;1.63;;;9.60;99.90;;;;;;10368473;28;20036;-68
2024/01/01 16:38:16;;;;;;;3.85;0.90;;;9.60;99.90;;;;;;10371574;28;20126;-69
2024/01/01 16:43:16;;;;;;;2.67;1.00;;;9.60;99.90;;;;;;10369433;28;20077;-69
2024/01/01 16:48:17;;;;;;;6.32;1.42;;;9.60;99.90;;;;;;10364654;28;20045;-68
2024/01/01 16:53:18;;;;;;;3.25;1.05;;;9.60;99.90;;;;;;10373941;28;20025;-69
2024/01/01 16:58:18;;;;;;;3.78;1.00;;;9.10;99.90;;;;;;10366619;28;20105;-68
2024/01/01 17:03:19;;;;;;;8.30;1.30;;;9.50;99.90;;;;;;10373277;28;20683;-69
2024/01/01 17:08:20;;;;;;;3.53;0.90;;;9.50;99.90;;;;;;10370642;28;20034;-68
2024/01/01 17:13:20;;;;;;;6.03;1.52;;;9.50;99.90;;;;;;10374472;28;20022;-69
2024/01/01 17:18:21;;;;;;;2.90;1.00;;;9.50;99.90;;;;;;10362195;28;20026;-69
2024/01/01 17:23:22;;;;;;;4.90;1.20;;;9.50;99.90;;;;;;10366104;28;20040;-68
2024/01/01 17:28:23;;;;;;;4.60;1.15;;;9.50;99.90;;;;;;10366144;28;20072;-69
2024/01/01 17:33:24;;;;;;;5.78;1.38;;;9.50;99.90;;;;;;10369947;28;20065;-69
2024/01/01 17:38:24;;;;;;;4.47;1.25;;;9.50;99.90;;;;;;10365735;28;20050;-69
2024/01/01 17:43:25;;;;;;;4.60;1.60;;;9.50;99.90;;;;;;10347909;28;20519;-69
2024/01/01 17:48:25;;;;;;;6.00;1.63;;;9.50;99.90;;;;;;10370483;28;20449;-68
2024/01/01 17:53:26;;;;;;;2.42;1.35;;;9.50;99.90;;;;;;10367683;28;20444;-68
2024/01/01 17:58:26;;;;;;;7.97;2.10;;;9.50;99.90;;;;;;10354579;28;20037;-69
2024/01/01 18:03:27;;;;;;;4.68;1.70;;;9.80;99.90;;;;;;10367528;28;20045;-69
2024/01/01 18:08:28;;;;;;;4.20;1.65;;;9.50;99.90;;;;;;10369657;28;20076;-68
2024/01/01 18:13:29;;;;;;;9.32;2.30;;;9.40;99.90;;;;;;10366350;28;20045;-68
2024/01/01 18:18:29;;;;;;;4.57;2.28;;;9.40;99.90;;;;;;10359702;28;20030;-69
2024/01/01 18:23:30;;;;;;;6.50;2.70;;;9.40;99.90;;;;;;10370371;28;20445;-69
2024/01/01 18:28:30;;;;;;;6.35;2.80;;;9.40;99.90;;;;;;10370754;28;20231;-68
2024/01/01 18:33:33;;;;;;;7.03;2.80;;;9.40;99.90;;;;;;10376045;28;20033;-69
2024/01/01 18:38:34;;;;;;;5.75;2.72;;;9.40;99.90;;;;;;10374618;28;20040;-69
2024/01/01 18:43:34;;;;;;;7.45;3.30;;;9.40;99.90;;;;;;10371068;28;20450;-68
2024/01/01 18:48:35;;;;;;;6.60;3.45;;;9.30;99.90;;;;;;10355577;28;20142;-69
2024/01/01 18:53:38;;;;;;;9.60;3.22;;;9.30;99.90;;;;;;10371757;28;20524;-69
2024/01/01 18:58:42;;;;;;;12.13;3.83;;;9.30;99.90;;;;;;10354626;28;20041;-68
2024/01/01 19:03:43;;;;;;;8.15;3.20;;;9.30;99.90;;;;;;10367789;28;20025;-69
2024/01/01 19:08:44;;;;;;;9.77;3.65;;;9.30;99.90;;;;;;10376632;28;20022;-68
2024/01/01 19:13:45;;;;;;;9.80;4.00;;;9.30;99.90;;;;;;10374540;28;20112;-70
2024/01/01 19:18:47;;;;;;;8.48;3.67;;;9.30;99.90;;;;;;10374287;28;20583;-69
2024/01/01 19:23:49;;;;;;;12.70;4.20;;;9.30;99.90;;;;;;10374953;28;20339;-68
2024/01/01 19:28:49;;;;;;;8.85;3.95;;;9.20;99.90;;;;;;10370916;28;20053;-69
2024/01/01 19:33:50;;;;;;;13.35;4.82;;;9.20;99.90;;;;;;10349823;28;20040;-69
2024/01/01 19:38:50;;;;;;;7.68;3.85;;;9.20;99.90;;;;;;10379041;28;20107;-69
2024/01/01 19:43:51;;;;;;;11.25;3.67;;;9.20;99.90;;;;;;10348344;28;20095;-68
2024/01/01 19:48:52;;;;;;;15.38;4.53;;;9.20;99.90;;;;;;10375656;28;20101;-69
2024/01/01 19:53:52;;;;;;;9.75;3.92;;;9.20;99.90;;;;;;10367081;28;20029;-69
2024/01/01 19:58:53;;;;;;;10.18;4.50;;;9.20;99.90;;;;;;10368959;28;20524;-69
2024/01/01 20:03:54;;;;;;;13.70;5.60;;;9.20;99.90;;;;;;10367392;28;20032;-69
2024/01/01 20:08:54;;;;;;;11.18;5.88;;;9.20;99.90;;;;;;10367243;28;20041;-69
2024/01/01 20:13:56;;;;;;;10.77;5.25;;;9.20;99.90;;;;;;10363419;28;20099;-69
2024/01/01 20:18:56;;;;;;;10.20;5.22;;;9.20;99.90;;;;;;10372570;28;20048;-68
2024/01/01 20:23:57;;;;;;;13.40;5.68;;;9.10;99.90;;;;;;10361568;28;20468;-69
2024/01/01 20:28:58;;;;;;;18.60;5.90;;;9.10;99.90;;;;;;10336038;28;20033;-70
2024/01/01 20:33:59;;;;;;;13.52;4.25;;;9.10;99.90;;;;;;10368029;28;20063;-69
2024/01/01 20:39:00;;;;;;;11.30;4.85;;;9.10;99.90;;;;;;10362190;28;20022;-69
2024/01/01 20:44:02;;;;;;;9.75;4.32;;;9.10;99.90;;;;;;10345206;28;20034;-70
2024/01/01 20:49:03;;;;;;;10.70;4.72;;;9.10;99.90;;;;;;10365931;28;20494;-70
2024/01/01 20:54:04;;;;;;;13.20;4.95;;;9.10;99.90;;;;;;10364165;28;20026;-70
2024/01/01 20:59:07;;;;;;;10.65;4.15;;;9.10;99.90;;;;;;10345993;28;20030;-70
2024/01/01 21:04:08;;;;;;;11.77;3.97;;;9.10;99.90;;;;;;10361061;28;20198;-70
2024/01/01 21:09:09;;;;;;;8.52;4.30;;;9.10;99.90;;;;;;10357195;28;20029;-70
2024/01/01 21:14:09;;;;;;;9.40;4.03;;;9.10;99.90;;;;;;10358382;28;20022;-70
2024/01/01 21:19:10;;;;;;;10.98;4.65;;;9.10;99.90;;;;;;10366257;28;20489;-70
2024/01/01 21:24:11;;;;;;;11.15;4.57;;;9.10;99.90;;;;;;10360899;28;20033;-70
2024/01/01 21:29:11;;;;;;;8.63;3.90;;;9.00;99.90;;;;;;10361589;28;20038;-70
2024/01/01 21:34:12;;;;;;;7.90;4.03;;;9.00;99.90;;;;;;10365557;28;20043;-70
2024/01/01 21:39:12;;;;;;;9.77;3.47;;;10.10;99.90;;;;;;10346936;28;20159;-70
2024/01/01 21:44:13;;;;;;;9.95;3.17;;;9.00;99.90;;;;;;10358620;28;20147;-71
2024/01/01 21:49:14;;;;;;;12.02;4.05;;;9.00;99.90;;;;;;10356463;28;20030;-70
2024/01/01 21:54:15;;;;;;;12.57;3.42;;;9.00;99.90;;;;;;10361167;28;20113;-70
2024/01/01 21:59:16;;;;;;;6.60;3.00;;;9.00;99.90;;;;;;10373876;28;20029;-70
2024/01/01 22:04:17;;;;;;;11.80;3.55;;;9.00;99.90;;;;;;10371118;28;20045;-70
2024/01/01 22:09:18;;;;;;;6.50;3.28;;;9.00;99.90;;;;;;10360372;28;20367;-70
2024/01/01 22:14:18;;;;;;;8.35;2.70;;;9.00;99.90;;;;;;10370570;28;20030;-69
2024/01/01 22:19:19;;;;;;;6.97;2.53;;;9.00;99.90;;;;;;10371350;28;20036;-69
2024/01/01 22:24:19;;;;;;;6.43;3.00;;;9.00;99.90;;;;;;10364903;28;20034;-70
2024/01/01 22:29:20;;;;;;;7.20;2.35;;;9.00;99.90;;;;;;10371632;28;20029;-69
2024/01/01 22:34:20;;;;;;;7.78;2.63;;;9.00;99.90;;;;;;10369263;28;20034;-69
2024/01/01 22:39:24;;;;;;;7.28;2.65;;;9.00;99.90;;;;;;10370856;28;20033;-70
2024/01/01 22:44:31;;;;;;;5.68;2.17;;;9.00;99.90;;;;;;10365500;28;20089;-70
2024/01/01 22:49:31;;;;;;;6.25;2.80;;;9.00;99.90;;;;;;10353126;28;20050;-70
2024/01/01 22:54:32;;;;;;;5.72;2.30;;;8.90;99.90;;;;;;10366325;28;20478;-70
2024/01/01 22:59:32;;;;;;;7.38;2.60;;;8.90;99.90;;;;;;10368453;28;20595;-70
2024/01/01 23:04:33;;;;;;;7.38;2.20;;;8.90;99.90;;;;;;10352503;28;20498;-70
2024/01/01 23:09:33;;;;;;;5.38;2.30;;;8.90;99.90;;;;;;10365428;28;20022;-69
2024/01/01 23:14:34;;;;;;;5.38;2.15;;;8.90;99.90;;;;;;10371382;28;20513;-70
2024/01/01 23:19:34;;;;;;;7.88;2.60;;;8.90;99.90;;;;;;10350547;28;20441;-69
2024/01/01 23:24:35;;;;;;;8.30;1.98;;;8.90;99.90;;;;;;10374927;28;20033;-70
2024/01/01 23:29:36;;;;;;;5.32;1.90;;;8.90;99.90;;;;;;10369720;28;20121;-69
2024/01/01 23:34:37;;;;;;;5.30;2.05;;;8.90;99.90;;;;;;10371691;28;20032;-70
2024/01/01 23:39:37;;;;;;;4.70;1.73;;;9.00;99.90;;;;;;10364557;28;20022;-69
2024/01/01 23:44:38;;;;;;;6.40;1.98;;;8.90;99.90;;;;;;10373235;28;20481;-69
2024/01/01 23:49:38;;;;;;;6.53;1.65;;;8.90;99.90;;;;;;10365416;28;20026;-69
2024/01/01 23:54:39;;;;;;;4.90;1.95;;;8.90;99.90;;;;;;10375311;28;20112;-69
2024/01/01 23:59:39;;;;;;;3.95;1.88;;;8.90;99.90;;;;;;10370810;28;20410;-69
